Strona główna
METAR-TAF:

METAR-TAF

Lotnisko :

Custer Airport

Monroe, Michigan, Stany Zjednoczone

Szerokość geograficzna: 41-56-24N, Długość geograficzna: 083-26-05W, wysokość: 188 m

Aktualna obserwacja pogody

Raport powstał 12 minut temu, godzina 22:55 UTC
Wiatr 9 kt od zachód
Temperatura -6°C
Wilgotność 62%
Ciśnienie 1033 hPa
Widzialność: 16.1 km
bezchmurnie

METAR: KTTF 112255Z AUTO 26009KT 10SM CLR M06/M12 A3050 RMK AO2 T10581118

czas: 18:07 (23:07 UTC)


TAF: brakujący

Obserwacja i prognoza pogody dla ponad 4000 lotnisk (raport METAR i TAF).

Dostępne stacje oznaczono żółtymi i czerwonymi punktami na mapie.

Najedź kursorem aby zobaczyć nazwę stacji.

Kliknij aby zobaczyć obserwacje i prognozy pogody.

Aby zmienić mapę: kliknij na zielony przycisk z czarnym krzyżykiem, aby powiększyć; na zielony przycisk z myślnikiem, aby pomniejszyć; na zielone strzałki, aby przejść do map sąsiednich.


METAR-TAF: